sensor_id;sensor_type;location;lat;lon;timestamp;P1;durP1;ratioP1;P2;durP2;ratioP2
23472;SDS011;11909;52.516;13.564;2023-12-20T00:01:21;8.00;;;6.75;;
23472;SDS011;11909;52.516;13.564;2023-12-20T00:03:50;7.10;;;6.40;;
23472;SDS011;11909;52.516;13.564;2023-12-20T00:06:17;8.27;;;7.45;;
23472;SDS011;11909;52.516;13.564;2023-12-20T00:08:47;7.65;;;6.85;;
23472;SDS011;11909;52.516;13.564;2023-12-20T00:11:15;6.80;;;6.18;;
23472;SDS011;11909;52.516;13.564;2023-12-20T00:13:43;7.93;;;6.45;;
23472;SDS011;11909;52.516;13.564;2023-12-20T00:16:15;7.38;;;6.22;;
23472;SDS011;11909;52.516;13.564;2023-12-20T00:18:43;6.90;;;6.20;;
23472;SDS011;11909;52.516;13.564;2023-12-20T00:21:11;8.02;;;6.43;;
23472;SDS011;11909;52.516;13.564;2023-12-20T00:23:39;6.53;;;5.93;;
23472;SDS011;11909;52.516;13.564;2023-12-20T00:26:08;7.35;;;6.57;;
23472;SDS011;11909;52.516;13.564;2023-12-20T00:28:37;9.37;;;6.60;;
23472;SDS011;11909;52.516;13.564;2023-12-20T00:31:04;7.18;;;6.38;;
23472;SDS011;11909;52.516;13.564;2023-12-20T00:33:32;7.18;;;6.47;;
23472;SDS011;11909;52.516;13.564;2023-12-20T00:36:00;6.82;;;6.13;;
23472;SDS011;11909;52.516;13.564;2023-12-20T00:38:28;6.95;;;6.25;;
23472;SDS011;11909;52.516;13.564;2023-12-20T00:40:56;6.93;;;6.22;;
23472;SDS011;11909;52.516;13.564;2023-12-20T00:43:25;7.22;;;6.15;;
23472;SDS011;11909;52.516;13.564;2023-12-20T00:45:54;7.70;;;6.05;;
23472;SDS011;11909;52.516;13.564;2023-12-20T00:48:22;8.05;;;6.75;;
23472;SDS011;11909;52.516;13.564;2023-12-20T00:50:50;7.00;;;6.30;;
23472;SDS011;11909;52.516;13.564;2023-12-20T00:53:18;6.13;;;5.53;;
23472;SDS011;11909;52.516;13.564;2023-12-20T00:55:46;7.18;;;6.43;;
23472;SDS011;11909;52.516;13.564;2023-12-20T00:58:14;6.72;;;6.00;;
23472;SDS011;11909;52.516;13.564;2023-12-20T01:00:43;6.38;;;5.78;;
23472;SDS011;11909;52.516;13.564;2023-12-20T01:03:12;6.40;;;5.80;;
23472;SDS011;11909;52.516;13.564;2023-12-20T01:05:40;6.57;;;5.82;;
23472;SDS011;11909;52.516;13.564;2023-12-20T01:08:09;6.68;;;5.85;;
23472;SDS011;11909;52.516;13.564;2023-12-20T01:10:36;7.30;;;6.05;;
23472;SDS011;11909;52.516;13.564;2023-12-20T01:13:04;6.60;;;5.63;;
23472;SDS011;11909;52.516;13.564;2023-12-20T01:15:32;6.55;;;5.85;;
23472;SDS011;11909;52.516;13.564;2023-12-20T01:18:02;6.80;;;6.10;;
23472;SDS011;11909;52.516;13.564;2023-12-20T01:20:30;7.95;;;6.07;;
23472;SDS011;11909;52.516;13.564;2023-12-20T01:22:58;6.30;;;5.70;;
23472;SDS011;11909;52.516;13.564;2023-12-20T01:25:26;6.75;;;6.05;;
23472;SDS011;11909;52.516;13.564;2023-12-20T01:27:54;6.43;;;5.70;;
23472;SDS011;11909;52.516;13.564;2023-12-20T01:30:22;6.70;;;6.00;;
23472;SDS011;11909;52.516;13.564;2023-12-20T01:32:50;6.32;;;5.72;;
23472;SDS011;11909;52.516;13.564;2023-12-20T01:35:20;6.50;;;5.88;;
23472;SDS011;11909;52.516;13.564;2023-12-20T01:37:47;6.85;;;6.15;;
23472;SDS011;11909;52.516;13.564;2023-12-20T01:40:16;9.18;;;6.63;;
23472;SDS011;11909;52.516;13.564;2023-12-20T01:42:44;7.05;;;6.10;;
23472;SDS011;11909;52.516;13.564;2023-12-20T01:45:12;6.28;;;5.68;;
23472;SDS011;11909;52.516;13.564;2023-12-20T01:47:40;5.85;;;5.28;;
23472;SDS011;11909;52.516;13.564;2023-12-20T01:50:08;6.80;;;6.20;;
23472;SDS011;11909;52.516;13.564;2023-12-20T01:52:38;6.35;;;5.75;;
23472;SDS011;11909;52.516;13.564;2023-12-20T01:55:06;6.65;;;5.90;;
23472;SDS011;11909;52.516;13.564;2023-12-20T01:57:40;7.13;;;5.72;;
23472;SDS011;11909;52.516;13.564;2023-12-20T02:00:09;5.15;;;4.50;;
23472;SDS011;11909;52.516;13.564;2023-12-20T02:02:40;5.13;;;4.60;;
23472;SDS011;11909;52.516;13.564;2023-12-20T02:05:09;5.15;;;4.65;;
23472;SDS011;11909;52.516;13.564;2023-12-20T02:07:39;4.93;;;4.07;;
23472;SDS011;11909;52.516;13.564;2023-12-20T02:10:07;4.70;;;4.22;;
23472;SDS011;11909;52.516;13.564;2023-12-20T02:12:35;5.22;;;4.72;;
23472;SDS011;11909;52.516;13.564;2023-12-20T02:15:04;4.53;;;4.13;;
23472;SDS011;11909;52.516;13.564;2023-12-20T02:17:32;3.95;;;3.55;;
23472;SDS011;11909;52.516;13.564;2023-12-20T02:20:01;4.25;;;3.40;;
23472;SDS011;11909;52.516;13.564;2023-12-20T02:22:31;3.40;;;2.63;;
23472;SDS011;11909;52.516;13.564;2023-12-20T02:24:59;5.05;;;2.30;;
23472;SDS011;11909;52.516;13.564;2023-12-20T02:27:27;4.80;;;2.20;;
23472;SDS011;11909;52.516;13.564;2023-12-20T02:29:56;2.70;;;1.75;;
23472;SDS011;11909;52.516;13.564;2023-12-20T02:32:24;1.65;;;1.40;;
23472;SDS011;11909;52.516;13.564;2023-12-20T02:34:53;1.42;;;1.33;;
23472;SDS011;11909;52.516;13.564;2023-12-20T02:37:22;3.40;;;1.80;;
23472;SDS011;11909;52.516;13.564;2023-12-20T02:39:51;2.45;;;1.60;;
23472;SDS011;11909;52.516;13.564;2023-12-20T02:42:19;1.85;;;1.38;;
23472;SDS011;11909;52.516;13.564;2023-12-20T02:44:47;6.18;;;2.03;;
23472;SDS011;11909;52.516;13.564;2023-12-20T02:47:15;2.92;;;1.45;;
23472;SDS011;11909;52.516;13.564;2023-12-20T02:49:42;2.78;;;1.70;;
23472;SDS011;11909;52.516;13.564;2023-12-20T02:52:10;2.75;;;1.50;;
23472;SDS011;11909;52.516;13.564;2023-12-20T02:54:39;2.58;;;1.50;;
23472;SDS011;11909;52.516;13.564;2023-12-20T02:57:08;4.07;;;1.60;;
23472;SDS011;11909;52.516;13.564;2023-12-20T02:59:36;5.05;;;1.88;;
23472;SDS011;11909;52.516;13.564;2023-12-20T03:02:04;2.72;;;1.80;;
23472;SDS011;11909;52.516;13.564;2023-12-20T03:04:32;2.22;;;1.85;;
23472;SDS011;11909;52.516;13.564;2023-12-20T03:07:00;2.38;;;1.83;;
23472;SDS011;11909;52.516;13.564;2023-12-20T03:09:28;4.13;;;2.00;;
23472;SDS011;11909;52.516;13.564;2023-12-20T03:12:08;4.25;;;3.08;;
23472;SDS011;11909;52.516;13.564;2023-12-20T03:14:36;4.20;;;3.40;;
23472;SDS011;11909;52.516;13.564;2023-12-20T03:17:04;6.00;;;3.58;;
23472;SDS011;11909;52.516;13.564;2023-12-20T03:19:32;5.47;;;3.20;;
23472;SDS011;11909;52.516;13.564;2023-12-20T03:22:00;4.30;;;3.35;;
23472;SDS011;11909;52.516;13.564;2023-12-20T03:24:28;4.82;;;3.40;;
23472;SDS011;11909;52.516;13.564;2023-12-20T03:26:56;4.95;;;3.30;;
23472;SDS011;11909;52.516;13.564;2023-12-20T03:29:25;5.68;;;3.60;;
23472;SDS011;11909;52.516;13.564;2023-12-20T03:31:53;6.70;;;3.88;;
23472;SDS011;11909;52.516;13.564;2023-12-20T03:34:21;8.15;;;3.72;;
23472;SDS011;11909;52.516;13.564;2023-12-20T03:36:49;5.88;;;3.17;;
23472;SDS011;11909;52.516;13.564;2023-12-20T03:39:17;7.47;;;3.05;;
23472;SDS011;11909;52.516;13.564;2023-12-20T03:41:45;14.43;;;3.45;;
23472;SDS011;11909;52.516;13.564;2023-12-20T03:44:12;12.48;;;3.30;;
23472;SDS011;11909;52.516;13.564;2023-12-20T03:46:42;5.63;;;3.30;;
23472;SDS011;11909;52.516;13.564;2023-12-20T03:49:11;9.85;;;3.00;;
23472;SDS011;11909;52.516;13.564;2023-12-20T03:51:39;9.98;;;2.90;;
23472;SDS011;11909;52.516;13.564;2023-12-20T03:54:08;5.75;;;2.60;;
23472;SDS011;11909;52.516;13.564;2023-12-20T03:56:36;12.48;;;2.75;;
23472;SDS011;11909;52.516;13.564;2023-12-20T03:59:04;11.50;;;2.50;;
23472;SDS011;11909;52.516;13.564;2023-12-20T04:01:32;8.30;;;2.30;;
23472;SDS011;11909;52.516;13.564;2023-12-20T04:04:01;7.20;;;2.53;;
23472;SDS011;11909;52.516;13.564;2023-12-20T04:06:30;9.07;;;2.30;;
23472;SDS011;11909;52.516;13.564;2023-12-20T04:08:58;7.03;;;2.35;;
23472;SDS011;11909;52.516;13.564;2023-12-20T04:11:26;10.23;;;2.45;;
23472;SDS011;11909;52.516;13.564;2023-12-20T04:13:53;10.60;;;2.38;;
23472;SDS011;11909;52.516;13.564;2023-12-20T04:16:21;7.00;;;2.72;;
23472;SDS011;11909;52.516;13.564;2023-12-20T04:18:49;8.52;;;2.78;;
23472;SDS011;11909;52.516;13.564;2023-12-20T04:21:19;9.77;;;2.72;;
23472;SDS011;11909;52.516;13.564;2023-12-20T04:23:46;11.43;;;2.67;;
23472;SDS011;11909;52.516;13.564;2023-12-20T04:26:15;6.03;;;2.72;;
23472;SDS011;11909;52.516;13.564;2023-12-20T04:28:42;13.35;;;2.40;;
23472;SDS011;11909;52.516;13.564;2023-12-20T04:31:10;11.40;;;2.50;;
23472;SDS011;11909;52.516;13.564;2023-12-20T04:33:38;10.27;;;2.25;;
23472;SDS011;11909;52.516;13.564;2023-12-20T04:36:06;11.32;;;2.47;;
23472;SDS011;11909;52.516;13.564;2023-12-20T04:38:37;8.70;;;2.15;;
23472;SDS011;11909;52.516;13.564;2023-12-20T04:41:04;11.63;;;2.40;;
23472;SDS011;11909;52.516;13.564;2023-12-20T04:43:32;11.70;;;2.45;;
23472;SDS011;11909;52.516;13.564;2023-12-20T04:46:00;8.45;;;2.20;;
23472;SDS011;11909;52.516;13.564;2023-12-20T04:48:28;12.68;;;2.00;;
23472;SDS011;11909;52.516;13.564;2023-12-20T04:50:56;11.88;;;2.40;;
23472;SDS011;11909;52.516;13.564;2023-12-20T04:53:24;10.07;;;2.30;;
23472;SDS011;11909;52.516;13.564;2023-12-20T04:55:53;10.70;;;2.40;;
23472;SDS011;11909;52.516;13.564;2023-12-20T04:58:21;10.27;;;2.45;;
23472;SDS011;11909;52.516;13.564;2023-12-20T05:00:49;11.05;;;2.13;;
23472;SDS011;11909;52.516;13.564;2023-12-20T05:03:17;8.77;;;2.30;;
23472;SDS011;11909;52.516;13.564;2023-12-20T05:05:45;8.68;;;2.28;;
23472;SDS011;11909;52.516;13.564;2023-12-20T05:08:13;8.98;;;2.22;;
23472;SDS011;11909;52.516;13.564;2023-12-20T05:10:41;9.63;;;2.25;;
23472;SDS011;11909;52.516;13.564;2023-12-20T05:13:11;7.90;;;2.50;;
23472;SDS011;11909;52.516;13.564;2023-12-20T05:15:38;14.85;;;2.58;;
23472;SDS011;11909;52.516;13.564;2023-12-20T05:18:07;11.10;;;2.70;;
23472;SDS011;11909;52.516;13.564;2023-12-20T05:20:34;6.03;;;2.30;;
23472;SDS011;11909;52.516;13.564;2023-12-20T05:23:03;13.10;;;2.75;;
23472;SDS011;11909;52.516;13.564;2023-12-20T05:25:31;10.18;;;2.75;;
23472;SDS011;11909;52.516;13.564;2023-12-20T05:27:59;7.75;;;2.30;;
23472;SDS011;11909;52.516;13.564;2023-12-20T05:30:28;7.63;;;2.15;;
23472;SDS011;11909;52.516;13.564;2023-12-20T05:32:56;16.83;;;3.00;;
23472;SDS011;11909;52.516;13.564;2023-12-20T05:35:24;14.07;;;2.60;;
23472;SDS011;11909;52.516;13.564;2023-12-20T05:37:53;10.30;;;2.97;;
23472;SDS011;11909;52.516;13.564;2023-12-20T05:40:20;9.68;;;2.40;;
23472;SDS011;11909;52.516;13.564;2023-12-20T05:42:48;10.52;;;2.83;;
23472;SDS011;11909;52.516;13.564;2023-12-20T05:45:16;6.50;;;2.22;;
23472;SDS011;11909;52.516;13.564;2023-12-20T05:47:45;15.57;;;2.85;;
23472;SDS011;11909;52.516;13.564;2023-12-20T05:50:14;11.27;;;2.75;;
23472;SDS011;11909;52.516;13.564;2023-12-20T05:52:42;9.85;;;2.45;;
23472;SDS011;11909;52.516;13.564;2023-12-20T05:55:10;17.90;;;2.58;;
23472;SDS011;11909;52.516;13.564;2023-12-20T05:57:38;7.45;;;2.30;;
23472;SDS011;11909;52.516;13.564;2023-12-20T06:00:07;9.90;;;2.45;;
23472;SDS011;11909;52.516;13.564;2023-12-20T06:02:36;13.23;;;1.87;;
23472;SDS011;11909;52.516;13.564;2023-12-20T06:05:05;9.02;;;2.28;;
23472;SDS011;11909;52.516;13.564;2023-12-20T06:10:02;8.73;;;2.03;;
23472;SDS011;11909;52.516;13.564;2023-12-20T06:12:30;12.30;;;2.25;;
23472;SDS011;11909;52.516;13.564;2023-12-20T06:14:59;8.85;;;2.47;;
23472;SDS011;11909;52.516;13.564;2023-12-20T06:17:27;8.07;;;1.83;;
23472;SDS011;11909;52.516;13.564;2023-12-20T06:19:57;8.63;;;2.17;;
23472;SDS011;11909;52.516;13.564;2023-12-20T06:22:26;10.23;;;2.80;;
23472;SDS011;11909;52.516;13.564;2023-12-20T06:24:54;11.40;;;2.40;;
23472;SDS011;11909;52.516;13.564;2023-12-20T06:27:22;8.82;;;2.10;;
23472;SDS011;11909;52.516;13.564;2023-12-20T06:29:50;17.58;;;2.38;;
23472;SDS011;11909;52.516;13.564;2023-12-20T06:32:18;12.93;;;2.00;;
23472;SDS011;11909;52.516;13.564;2023-12-20T06:34:46;11.10;;;2.47;;
23472;SDS011;11909;52.516;13.564;2023-12-20T06:37:14;9.18;;;2.20;;
23472;SDS011;11909;52.516;13.564;2023-12-20T06:39:44;16.45;;;4.10;;
23472;SDS011;11909;52.516;13.564;2023-12-20T06:42:12;8.50;;;3.10;;
23472;SDS011;11909;52.516;13.564;2023-12-20T06:44:40;12.82;;;2.80;;
23472;SDS011;11909;52.516;13.564;2023-12-20T06:47:08;9.27;;;1.90;;
23472;SDS011;11909;52.516;13.564;2023-12-20T06:49:36;9.98;;;3.22;;
23472;SDS011;11909;52.516;13.564;2023-12-20T06:52:04;12.15;;;2.63;;
23472;SDS011;11909;52.516;13.564;2023-12-20T06:54:32;9.85;;;2.67;;
23472;SDS011;11909;52.516;13.564;2023-12-20T06:57:02;9.25;;;2.70;;
23472;SDS011;11909;52.516;13.564;2023-12-20T06:59:30;5.95;;;2.22;;
23472;SDS011;11909;52.516;13.564;2023-12-20T07:01:58;11.10;;;2.67;;
23472;SDS011;11909;52.516;13.564;2023-12-20T07:04:26;13.00;;;3.20;;
23472;SDS011;11909;52.516;13.564;2023-12-20T07:06:54;10.30;;;2.15;;
23472;SDS011;11909;52.516;13.564;2023-12-20T07:09:24;9.10;;;2.20;;
23472;SDS011;11909;52.516;13.564;2023-12-20T07:11:52;6.85;;;2.45;;
23472;SDS011;11909;52.516;13.564;2023-12-20T07:14:21;16.92;;;2.88;;
23472;SDS011;11909;52.516;13.564;2023-12-20T07:16:49;14.75;;;2.67;;
23472;SDS011;11909;52.516;13.564;2023-12-20T07:19:17;10.60;;;2.30;;
23472;SDS011;11909;52.516;13.564;2023-12-20T07:21:45;7.97;;;2.40;;
23472;SDS011;11909;52.516;13.564;2023-12-20T07:24:13;9.88;;;2.75;;
23472;SDS011;11909;52.516;13.564;2023-12-20T07:26:41;16.67;;;3.47;;
23472;SDS011;11909;52.516;13.564;2023-12-20T07:29:09;10.30;;;2.22;;
23472;SDS011;11909;52.516;13.564;2023-12-20T07:31:38;10.95;;;2.75;;
23472;SDS011;11909;52.516;13.564;2023-12-20T07:34:06;8.20;;;2.45;;
23472;SDS011;11909;52.516;13.564;2023-12-20T07:36:34;11.98;;;2.60;;
23472;SDS011;11909;52.516;13.564;2023-12-20T07:39:02;13.07;;;2.70;;
23472;SDS011;11909;52.516;13.564;2023-12-20T07:41:30;12.18;;;2.92;;
23472;SDS011;11909;52.516;13.564;2023-12-20T07:43:58;11.10;;;3.42;;
23472;SDS011;11909;52.516;13.564;2023-12-20T07:46:26;14.50;;;3.00;;
23472;SDS011;11909;52.516;13.564;2023-12-20T07:48:55;10.90;;;2.60;;
23472;SDS011;11909;52.516;13.564;2023-12-20T07:51:23;14.10;;;2.93;;
23472;SDS011;11909;52.516;13.564;2023-12-20T07:53:51;9.25;;;3.20;;
23472;SDS011;11909;52.516;13.564;2023-12-20T07:56:19;11.02;;;2.80;;
23472;SDS011;11909;52.516;13.564;2023-12-20T07:58:47;16.23;;;2.97;;
23472;SDS011;11909;52.516;13.564;2023-12-20T08:01:19;13.35;;;3.30;;
23472;SDS011;11909;52.516;13.564;2023-12-20T08:03:49;12.02;;;2.55;;
23472;SDS011;11909;52.516;13.564;2023-12-20T08:06:19;10.23;;;2.35;;
23472;SDS011;11909;52.516;13.564;2023-12-20T08:08:48;13.55;;;2.88;;
23472;SDS011;11909;52.516;13.564;2023-12-20T08:11:27;5.63;;;2.28;;
23472;SDS011;11909;52.516;13.564;2023-12-20T08:13:56;21.17;;;2.85;;
23472;SDS011;11909;52.516;13.564;2023-12-20T08:16:24;19.70;;;2.95;;
23472;SDS011;11909;52.516;13.564;2023-12-20T08:18:52;14.45;;;2.67;;
23472;SDS011;11909;52.516;13.564;2023-12-20T08:21:21;16.48;;;2.67;;
23472;SDS011;11909;52.516;13.564;2023-12-20T08:23:50;15.10;;;3.10;;
23472;SDS011;11909;52.516;13.564;2023-12-20T08:26:18;11.50;;;2.53;;
23472;SDS011;11909;52.516;13.564;2023-12-20T08:28:48;14.15;;;3.42;;
23472;SDS011;11909;52.516;13.564;2023-12-20T08:31:16;6.97;;;2.38;;
23472;SDS011;11909;52.516;13.564;2023-12-20T08:33:45;8.45;;;1.98;;
23472;SDS011;11909;52.516;13.564;2023-12-20T08:36:14;12.15;;;2.78;;
23472;SDS011;11909;52.516;13.564;2023-12-20T08:38:45;11.10;;;2.35;;
23472;SDS011;11909;52.516;13.564;2023-12-20T08:41:13;10.90;;;2.63;;
23472;SDS011;11909;52.516;13.564;2023-12-20T08:43:41;10.82;;;2.28;;
23472;SDS011;11909;52.516;13.564;2023-12-20T08:46:09;5.10;;;2.00;;
23472;SDS011;11909;52.516;13.564;2023-12-20T08:48:38;11.25;;;2.70;;
23472;SDS011;11909;52.516;13.564;2023-12-20T08:51:06;9.90;;;2.30;;
23472;SDS011;11909;52.516;13.564;2023-12-20T08:53:35;11.10;;;2.15;;
23472;SDS011;11909;52.516;13.564;2023-12-20T08:56:04;8.95;;;2.28;;
23472;SDS011;11909;52.516;13.564;2023-12-20T08:58:33;6.82;;;1.95;;
23472;SDS011;11909;52.516;13.564;2023-12-20T09:01:02;12.07;;;2.28;;
23472;SDS011;11909;52.516;13.564;2023-12-20T09:03:31;10.93;;;2.20;;
23472;SDS011;11909;52.516;13.564;2023-12-20T09:05:59;8.60;;;2.50;;
23472;SDS011;11909;52.516;13.564;2023-12-20T09:08:27;7.90;;;2.40;;
23472;SDS011;11909;52.516;13.564;2023-12-20T09:10:55;11.93;;;2.53;;
23472;SDS011;11909;52.516;13.564;2023-12-20T09:13:24;12.50;;;2.63;;
23472;SDS011;11909;52.516;13.564;2023-12-20T09:15:55;14.57;;;2.58;;
23472;SDS011;11909;52.516;13.564;2023-12-20T09:18:23;12.80;;;2.00;;
23472;SDS011;11909;52.516;13.564;2023-12-20T09:20:52;16.73;;;3.08;;
23472;SDS011;11909;52.516;13.564;2023-12-20T09:23:20;5.88;;;1.80;;
23472;SDS011;11909;52.516;13.564;2023-12-20T09:25:47;8.82;;;2.60;;
23472;SDS011;11909;52.516;13.564;2023-12-20T09:28:15;13.77;;;2.75;;
23472;SDS011;11909;52.516;13.564;2023-12-20T09:30:45;16.23;;;2.72;;
23472;SDS011;11909;52.516;13.564;2023-12-20T09:33:14;9.38;;;2.42;;
23472;SDS011;11909;52.516;13.564;2023-12-20T09:35:42;12.75;;;2.30;;
23472;SDS011;11909;52.516;13.564;2023-12-20T09:38:11;13.68;;;2.58;;
23472;SDS011;11909;52.516;13.564;2023-12-20T09:40:41;12.93;;;2.28;;
23472;SDS011;11909;52.516;13.564;2023-12-20T09:43:10;8.50;;;2.00;;
23472;SDS011;11909;52.516;13.564;2023-12-20T09:45:41;10.68;;;2.83;;
23472;SDS011;11909;52.516;13.564;2023-12-20T09:48:11;13.20;;;2.15;;
23472;SDS011;11909;52.516;13.564;2023-12-20T09:50:40;11.80;;;2.95;;
23472;SDS011;11909;52.516;13.564;2023-12-20T09:53:16;11.07;;;2.88;;
23472;SDS011;11909;52.516;13.564;2023-12-20T09:55:46;14.55;;;2.50;;
23472;SDS011;11909;52.516;13.564;2023-12-20T09:58:16;10.63;;;2.70;;
23472;SDS011;11909;52.516;13.564;2023-12-20T10:00:43;13.43;;;3.20;;
23472;SDS011;11909;52.516;13.564;2023-12-20T10:03:12;15.82;;;2.70;;
23472;SDS011;11909;52.516;13.564;2023-12-20T10:05:42;15.15;;;2.28;;
23472;SDS011;11909;52.516;13.564;2023-12-20T10:08:12;10.90;;;2.40;;
23472;SDS011;11909;52.516;13.564;2023-12-20T10:10:40;7.93;;;2.50;;
23472;SDS011;11909;52.516;13.564;2023-12-20T10:13:14;11.10;;;2.53;;
23472;SDS011;11909;52.516;13.564;2023-12-20T10:15:43;6.70;;;2.33;;
23472;SDS011;11909;52.516;13.564;2023-12-20T10:18:12;7.50;;;2.42;;
23472;SDS011;11909;52.516;13.564;2023-12-20T10:20:41;12.73;;;2.53;;
23472;SDS011;11909;52.516;13.564;2023-12-20T10:23:10;16.48;;;3.33;;
23472;SDS011;11909;52.516;13.564;2023-12-20T10:25:39;12.65;;;2.22;;
23472;SDS011;11909;52.516;13.564;2023-12-20T10:28:11;11.43;;;2.97;;
23472;SDS011;11909;52.516;13.564;2023-12-20T10:30:41;12.85;;;2.58;;
23472;SDS011;11909;52.516;13.564;2023-12-20T10:33:09;10.77;;;2.47;;
23472;SDS011;11909;52.516;13.564;2023-12-20T10:35:40;20.23;;;7.38;;
23472;SDS011;11909;52.516;13.564;2023-12-20T10:38:12;10.52;;;2.60;;
23472;SDS011;11909;52.516;13.564;2023-12-20T10:40:42;10.95;;;2.33;;
23472;SDS011;11909;52.516;13.564;2023-12-20T10:43:12;6.85;;;1.95;;
23472;SDS011;11909;52.516;13.564;2023-12-20T10:45:41;16.30;;;2.47;;
23472;SDS011;11909;52.516;13.564;2023-12-20T10:48:10;14.40;;;2.75;;
23472;SDS011;11909;52.516;13.564;2023-12-20T10:50:40;14.60;;;3.10;;
23472;SDS011;11909;52.516;13.564;2023-12-20T10:53:08;11.23;;;2.90;;
23472;SDS011;11909;52.516;13.564;2023-12-20T10:55:36;9.45;;;2.28;;
23472;SDS011;11909;52.516;13.564;2023-12-20T10:58:06;9.68;;;2.47;;
23472;SDS011;11909;52.516;13.564;2023-12-20T11:03:06;16.02;;;2.70;;
23472;SDS011;11909;52.516;13.564;2023-12-20T11:05:38;10.85;;;2.40;;
23472;SDS011;11909;52.516;13.564;2023-12-20T11:08:16;8.77;;;2.75;;
23472;SDS011;11909;52.516;13.564;2023-12-20T11:10:50;10.63;;;2.35;;
23472;SDS011;11909;52.516;13.564;2023-12-20T11:13:26;13.00;;;2.85;;
23472;SDS011;11909;52.516;13.564;2023-12-20T11:15:58;7.85;;;2.10;;
23472;SDS011;11909;52.516;13.564;2023-12-20T11:18:30;14.60;;;2.85;;
23472;SDS011;11909;52.516;13.564;2023-12-20T11:21:01;9.70;;;3.05;;
23472;SDS011;11909;52.516;13.564;2023-12-20T11:23:32;17.45;;;3.22;;
23472;SDS011;11909;52.516;13.564;2023-12-20T11:26:01;11.57;;;2.70;;
23472;SDS011;11909;52.516;13.564;2023-12-20T11:28:30;14.55;;;2.90;;
23472;SDS011;11909;52.516;13.564;2023-12-20T11:30:58;11.90;;;3.42;;
23472;SDS011;11909;52.516;13.564;2023-12-20T11:33:29;14.88;;;2.80;;
23472;SDS011;11909;52.516;13.564;2023-12-20T11:35:58;13.07;;;2.50;;
23472;SDS011;11909;52.516;13.564;2023-12-20T11:38:28;13.23;;;3.20;;
23472;SDS011;11909;52.516;13.564;2023-12-20T11:41:05;12.68;;;2.83;;
23472;SDS011;11909;52.516;13.564;2023-12-20T11:43:37;11.43;;;2.67;;
23472;SDS011;11909;52.516;13.564;2023-12-20T11:46:06;11.93;;;2.67;;
23472;SDS011;11909;52.516;13.564;2023-12-20T11:48:38;10.65;;;3.00;;
23472;SDS011;11909;52.516;13.564;2023-12-20T11:51:09;14.05;;;2.35;;
23472;SDS011;11909;52.516;13.564;2023-12-20T11:53:39;12.95;;;2.72;;
23472;SDS011;11909;52.516;13.564;2023-12-20T11:56:08;11.23;;;2.90;;
23472;SDS011;11909;52.516;13.564;2023-12-20T11:58:37;13.07;;;3.00;;
23472;SDS011;11909;52.516;13.564;2023-12-20T12:01:06;14.38;;;2.80;;
23472;SDS011;11909;52.516;13.564;2023-12-20T12:03:35;12.48;;;2.67;;
23472;SDS011;11909;52.516;13.564;2023-12-20T12:06:04;10.07;;;2.65;;
23472;SDS011;11909;52.516;13.564;2023-12-20T12:08:32;15.95;;;2.90;;
23472;SDS011;11909;52.516;13.564;2023-12-20T12:11:01;11.73;;;2.60;;
23472;SDS011;11909;52.516;13.564;2023-12-20T12:15:58;11.25;;;2.95;;
23472;SDS011;11909;52.516;13.564;2023-12-20T12:18:26;12.27;;;2.63;;
23472;SDS011;11909;52.516;13.564;2023-12-20T12:20:59;9.50;;;3.00;;
23472;SDS011;11909;52.516;13.564;2023-12-20T12:23:28;15.57;;;2.83;;
23472;SDS011;11909;52.516;13.564;2023-12-20T12:25:55;15.35;;;2.60;;
23472;SDS011;11909;52.516;13.564;2023-12-20T12:28:26;9.77;;;2.92;;
23472;SDS011;11909;52.516;13.564;2023-12-20T12:30:56;11.48;;;2.70;;
23472;SDS011;11909;52.516;13.564;2023-12-20T12:33:25;10.87;;;2.63;;
23472;SDS011;11909;52.516;13.564;2023-12-20T12:35:54;12.82;;;2.85;;
23472;SDS011;11909;52.516;13.564;2023-12-20T12:38:22;11.52;;;2.50;;
23472;SDS011;11909;52.516;13.564;2023-12-20T12:40:51;6.07;;;2.60;;
23472;SDS011;11909;52.516;13.564;2023-12-20T12:43:20;9.90;;;2.53;;
23472;SDS011;11909;52.516;13.564;2023-12-20T12:45:51;9.27;;;2.25;;
23472;SDS011;11909;52.516;13.564;2023-12-20T12:48:19;16.02;;;3.00;;
23472;SDS011;11909;52.516;13.564;2023-12-20T12:50:47;10.02;;;2.42;;
23472;SDS011;11909;52.516;13.564;2023-12-20T12:53:18;10.10;;;2.70;;
23472;SDS011;11909;52.516;13.564;2023-12-20T12:55:46;12.18;;;2.65;;
23472;SDS011;11909;52.516;13.564;2023-12-20T12:58:13;11.43;;;2.78;;
23472;SDS011;11909;52.516;13.564;2023-12-20T13:00:41;10.57;;;2.85;;
23472;SDS011;11909;52.516;13.564;2023-12-20T13:03:10;11.40;;;3.38;;
23472;SDS011;11909;52.516;13.564;2023-12-20T13:05:38;9.02;;;2.90;;
23472;SDS011;11909;52.516;13.564;2023-12-20T13:08:10;7.30;;;3.05;;
23472;SDS011;11909;52.516;13.564;2023-12-20T13:10:38;11.68;;;2.92;;
23472;SDS011;11909;52.516;13.564;2023-12-20T13:13:06;15.07;;;2.95;;
23472;SDS011;11909;52.516;13.564;2023-12-20T13:15:34;11.95;;;3.22;;
23472;SDS011;11909;52.516;13.564;2023-12-20T13:18:03;11.60;;;3.47;;
23472;SDS011;11909;52.516;13.564;2023-12-20T13:20:34;11.57;;;2.95;;
23472;SDS011;11909;52.516;13.564;2023-12-20T13:23:02;11.98;;;3.55;;
23472;SDS011;11909;52.516;13.564;2023-12-20T13:25:30;15.55;;;3.63;;
23472;SDS011;11909;52.516;13.564;2023-12-20T13:27:57;10.13;;;3.05;;
23472;SDS011;11909;52.516;13.564;2023-12-20T13:30:25;14.90;;;5.03;;
23472;SDS011;11909;52.516;13.564;2023-12-20T13:32:54;6.55;;;2.55;;
23472;SDS011;11909;52.516;13.564;2023-12-20T13:35:21;4.35;;;1.40;;
23472;SDS011;11909;52.516;13.564;2023-12-20T13:37:51;5.35;;;1.25;;
23472;SDS011;11909;52.516;13.564;2023-12-20T13:40:19;3.60;;;1.38;;
23472;SDS011;11909;52.516;13.564;2023-12-20T13:42:47;1.88;;;1.00;;
23472;SDS011;11909;52.516;13.564;2023-12-20T13:45:15;2.70;;;1.27;;
23472;SDS011;11909;52.516;13.564;2023-12-20T13:47:43;2.20;;;1.00;;
23472;SDS011;11909;52.516;13.564;2023-12-20T13:50:12;3.03;;;1.60;;
23472;SDS011;11909;52.516;13.564;2023-12-20T13:52:40;2.03;;;0.90;;
23472;SDS011;11909;52.516;13.564;2023-12-20T13:55:09;3.75;;;1.13;;
23472;SDS011;11909;52.516;13.564;2023-12-20T13:57:37;1.75;;;1.02;;
23472;SDS011;11909;52.516;13.564;2023-12-20T14:00:20;1.50;;;1.00;;
23472;SDS011;11909;52.516;13.564;2023-12-20T14:02:48;2.63;;;1.02;;
23472;SDS011;11909;52.516;13.564;2023-12-20T14:05:17;3.05;;;1.23;;
23472;SDS011;11909;52.516;13.564;2023-12-20T14:07:46;2.88;;;1.50;;
23472;SDS011;11909;52.516;13.564;2023-12-20T14:10:16;2.75;;;1.10;;
23472;SDS011;11909;52.516;13.564;2023-12-20T14:12:44;2.42;;;1.30;;
23472;SDS011;11909;52.516;13.564;2023-12-20T14:15:12;3.70;;;1.38;;
23472;SDS011;11909;52.516;13.564;2023-12-20T14:17:41;4.65;;;1.38;;
23472;SDS011;11909;52.516;13.564;2023-12-20T14:20:10;6.10;;;1.60;;
23472;SDS011;11909;52.516;13.564;2023-12-20T14:22:39;4.07;;;1.63;;
23472;SDS011;11909;52.516;13.564;2023-12-20T14:25:19;5.03;;;1.52;;
23472;SDS011;11909;52.516;13.564;2023-12-20T14:27:49;10.20;;;1.73;;
23472;SDS011;11909;52.516;13.564;2023-12-20T14:30:17;4.97;;;1.98;;
23472;SDS011;11909;52.516;13.564;2023-12-20T14:32:45;2.95;;;1.83;;
23472;SDS011;11909;52.516;13.564;2023-12-20T14:35:14;3.15;;;1.60;;
23472;SDS011;11909;52.516;13.564;2023-12-20T14:37:42;5.63;;;1.30;;
23472;SDS011;11909;52.516;13.564;2023-12-20T14:40:11;1.85;;;1.13;;
23472;SDS011;11909;52.516;13.564;2023-12-20T14:42:44;2.30;;;1.20;;
23472;SDS011;11909;52.516;13.564;2023-12-20T14:45:14;3.90;;;1.00;;